Time;durP1;ratioP1;P1;durP2;ratioP2;P2;SDS_P1;SDS_P2;PMS_P1;PMS_P2;Temp;Humidity;BMP_temperature;BMP_pressure;BME280_temperature;BME280_humidity;BME280_pressure;Samples;Min_cycle;Max_cycle;Signal;HPM_P1;HPM_P2
2022/09/07 00:00:51;;;;;;;3.70;2.80;;;;;;;13.44;40.18;100986.95;106222;1271;25927;-83
2022/09/07 00:03:19;;;;;;;2.90;2.60;;;;;;;13.41;40.26;100991.08;106398;1271;23177;-84
2022/09/07 00:05:49;;;;;;;3.60;2.30;;;;;;;13.40;40.32;100990.73;106630;1271;22588;-83
2022/09/07 00:08:19;;;;;;;3.10;2.50;;;;;;;13.39;40.34;100988.61;106607;1271;22865;-81
2022/09/07 00:11:04;;;;;;;3.60;2.40;;;;;;;13.26;40.22;100978.50;106226;1271;22523;-82
2022/09/07 00:13:34;;;;;;;5.10;3.10;;;;;;;13.22;40.42;100974.29;106205;1271;22688;-81
2022/09/07 00:16:06;;;;;;;4.00;2.70;;;;;;;13.16;40.56;100973.30;106238;1271;25378;-79
2022/09/07 00:18:34;;;;;;;5.60;2.80;;;;;;;13.13;40.69;100968.02;106187;1271;25337;-77
2022/09/07 00:21:05;;;;;;;5.40;2.50;;;;;;;13.14;40.73;100966.59;106116;1271;24309;-82
2022/09/07 00:23:34;;;;;;;4.40;3.00;;;;;;;13.10;40.75;100965.75;106263;1271;23889;-76
2022/09/07 00:26:06;;;;;;;4.20;2.70;;;;;;;13.06;40.79;100966.85;106215;1271;25372;-78
2022/09/07 00:28:34;;;;;;;3.60;2.70;;;;;;;13.02;40.89;100964.23;106215;1271;25322;-78
2022/09/07 00:31:02;;;;;;;4.90;3.00;;;;;;;12.99;41.05;100961.27;106548;1270;24233;-78
2022/09/07 00:33:30;;;;;;;5.10;2.90;;;;;;;12.99;41.14;100962.67;106464;1273;25375;-79
2022/09/07 00:35:58;;;;;;;5.90;2.20;;;;;;;13.00;41.23;100957.73;106248;1271;24429;-79
2022/09/07 00:38:25;;;;;;;3.20;2.50;;;;;;;13.02;41.19;100960.70;106411;1271;24177;-78
2022/09/07 00:40:52;;;;;;;4.00;2.60;;;;;;;12.92;41.14;100958.33;106610;1270;22491;-74
2022/09/07 00:43:37;;;;;;;4.10;2.70;;;;;;;12.90;41.26;100954.27;106608;1270;23232;-76
2022/09/07 00:46:10;;;;;;;3.40;2.50;;;;;;;12.87;41.37;100957.84;106329;1271;25913;-77
2022/09/07 00:48:57;;;;;;;4.20;2.80;;;;;;;12.85;41.53;100956.63;106407;1270;22782;-75
2022/09/07 00:51:42;;;;;;;6.40;2.50;;;;;;;12.85;41.67;100956.45;106373;1270;22693;-76
2022/09/07 00:54:17;;;;;;;5.30;2.40;;;;;;;12.80;41.50;100957.54;106268;1270;23472;-86
2022/09/07 00:56:47;;;;;;;4.50;2.10;;;;;;;12.80;41.56;100960.92;106406;1270;22687;-76
2022/09/07 00:59:19;;;;;;;3.30;2.40;;;;;;;12.80;41.67;100957.19;106468;1269;22598;-79
2022/09/07 01:01:46;;;;;;;3.30;2.30;;;;;;;12.77;41.67;100955.81;106274;1271;22544;-78
2022/09/07 01:04:15;;;;;;;3.80;2.40;;;;;;;12.69;41.76;100950.23;106502;1273;22568;-75
2022/09/07 01:06:43;;;;;;;7.60;2.70;;;;;;;12.70;41.83;100951.63;106488;1270;24216;-75
2022/09/07 01:09:19;;;;;;;2.80;2.30;;;;;;;12.70;41.96;100952.17;106525;1270;22542;-76
2022/09/07 01:11:49;;;;;;;3.70;2.50;;;;;;;12.69;41.93;100955.37;106186;1271;22573;-81
2022/09/07 01:14:27;;;;;;;7.80;3.00;;;;;;;12.63;42.01;100957.36;106070;1275;22542;-81
2022/09/07 01:17:13;;;;;;;5.20;3.00;;;;;;;12.62;42.10;100958.26;105470;1280;23269;-79
2022/09/07 01:20:03;;;;;;;;;;;;;;;12.64;42.31;100959.98;105571;1282;22664;-82
2022/09/07 01:22:53;;;;;;;4.30;2.20;;;;;;;12.61;42.22;100963.20;105434;1280;25292;-80
2022/09/07 01:25:50;;;;;;;4.60;2.80;;;;;;;12.57;42.31;100958.81;105528;1281;22582;-83
2022/09/07 01:28:32;;;;;;;4.80;2.90;;;;;;;12.51;42.34;100956.92;105570;1280;25474;-80
2022/09/07 01:31:12;;;;;;;5.00;2.90;;;;;;;12.47;42.32;100959.25;105265;1282;25453;-82
2022/09/07 01:34:07;;;;;;;3.50;2.70;;;;;;;12.45;42.53;100957.33;105885;1276;24372;-78
2022/09/07 01:37:05;;;;;;;3.70;2.80;;;;;;;12.41;42.67;100956.47;106124;1276;26001;-76
2022/09/07 01:39:46;;;;;;;4.90;3.30;;;;;;;12.40;42.81;100953.13;106036;1275;22561;-80
2022/09/07 01:42:20;;;;;;;4.30;2.70;;;;;;;12.40;42.87;100948.70;106012;1276;25395;-86
2022/09/07 01:44:57;;;;;;;5.30;2.90;;;;;;;12.38;42.78;100954.02;106043;1278;24275;-82
2022/09/07 01:47:46;;;;;;;3.70;2.10;;;;;;;12.32;42.77;100954.75;106034;1275;22860;-84
2022/09/07 01:50:40;;;;;;;3.60;2.80;;;;;;;12.31;42.93;100953.00;105892;1276;22923;-78
2022/09/07 01:53:14;;;;;;;4.10;2.60;;;;;;;12.23;43.04;100957.66;105820;1276;25339;-79
2022/09/07 01:56:16;;;;;;;5.00;2.50;;;;;;;12.21;43.24;100955.55;105844;1276;22486;-78
2022/09/07 01:58:50;;;;;;;4.90;2.50;;;;;;;12.16;43.11;100955.05;105739;1275;22584;-81
2022/09/07 02:01:52;;;;;;;8.10;2.90;;;;;;;12.15;43.25;100957.35;106016;1275;22700;-77
2022/09/07 02:04:27;;;;;;;5.00;2.90;;;;;;;12.17;43.28;100956.64;106017;1277;22565;-77
2022/09/07 02:07:19;;;;;;;5.60;2.60;;;;;;;12.14;43.37;100960.00;105893;1274;22538;-77
2022/09/07 02:10:09;;;;;;;3.80;3.10;;;;;;;12.11;43.34;100959.48;105947;1275;24906;-78
2022/09/07 02:13:07;;;;;;;6.50;3.30;;;;;;;12.05;43.52;100955.97;106084;1274;24481;-78
2022/09/07 02:15:58;;;;;;;5.30;3.00;;;;;;;12.07;43.61;100959.14;106225;1270;25332;-75
2022/09/07 02:18:33;;;;;;;5.20;3.30;;;;;;;12.07;43.70;100957.91;106216;1271;24344;-75
2022/09/07 02:21:01;;;;;;;5.70;2.50;;;;;;;12.06;43.72;100952.43;106201;1270;22566;-72
2022/09/07 02:23:38;;;;;;;4.60;2.70;;;;;;;12.05;43.68;100948.57;105809;1276;22577;-76
2022/09/07 02:26:14;;;;;;;8.50;2.90;;;;;;;12.03;43.84;100947.67;105697;1276;23191;-76
2022/09/07 02:28:42;;;;;;;4.20;2.40;;;;;;;12.02;43.81;100944.70;105725;1281;23938;-79
2022/09/07 02:31:09;;;;;;;5.70;2.70;;;;;;;11.99;43.91;100943.30;105009;1285;24337;-78
2022/09/07 02:33:37;;;;;;;3.30;2.50;;;;;;;11.94;43.93;100939.98;105214;1285;23930;-81
2022/09/07 02:36:05;;;;;;;4.60;2.70;;;;;;;11.88;43.94;100940.90;105064;1284;23978;-81
2022/09/07 02:38:34;;;;;;;5.20;2.60;;;;;;;11.84;44.16;100937.38;105039;1284;25706;-78
2022/09/07 02:41:03;;;;;;;3.80;2.60;;;;;;;11.82;44.36;100933.86;105242;1283;24321;-79
2022/09/07 02:43:31;;;;;;;5.40;2.50;;;;;;;11.78;44.32;100932.30;105467;1282;22742;-80
2022/09/07 02:46:27;;;;;;;6.40;2.90;;;;;;;11.77;44.46;100932.48;105346;1281;25357;-79
2022/09/07 02:49:15;;;;;;;2.50;2.20;;;;;;;11.73;44.71;100928.44;105123;1284;22582;-79
2022/09/07 02:52:14;;;;;;;5.80;2.70;;;;;;;11.70;44.76;100925.63;105306;1282;22550;-78
2022/09/07 02:55:04;;;;;;;5.10;2.50;;;;;;;11.64;44.79;100927.25;105466;1282;23940;-76
2022/09/07 02:57:33;;;;;;;3.70;2.90;;;;;;;11.55;44.90;100923.07;104898;1285;25399;-76
2022/09/07 03:00:19;;;;;;;4.00;2.50;;;;;;;11.48;45.14;100920.09;105196;1285;22490;-74
2022/09/07 03:03:17;;;;;;;6.70;2.80;;;;;;;11.44;45.23;100918.34;104818;1288;24341;-77
2022/09/07 03:05:47;;;;;;;3.90;2.80;;;;;;;11.41;45.37;100917.65;105119;1287;22585;-75
2022/09/07 03:08:25;;;;;;;4.00;2.70;;;;;;;11.40;45.37;100920.30;105700;1281;22807;-76
2022/09/07 03:10:53;;;;;;;2.80;2.50;;;;;;;11.39;45.46;100918.73;105605;1281;22797;-79
2022/09/07 03:13:26;;;;;;;5.30;2.30;;;;;;;11.40;45.45;100916.42;105453;1280;25261;-79
2022/09/07 03:15:55;;;;;;;3.70;3.10;;;;;;;11.37;45.60;100917.31;105521;1281;24299;-77
2022/09/07 03:18:23;;;;;;;13.20;3.80;;;;;;;11.35;45.56;100914.15;105429;1280;23941;-82
2022/09/07 03:20:50;;;;;;;7.60;2.50;;;;;;;11.35;45.62;100914.15;105560;1280;22998;-79
2022/09/07 03:23:17;;;;;;;4.90;2.80;;;;;;;11.39;45.59;100912.02;105759;1280;22832;-79
2022/09/07 03:25:46;;;;;;;7.50;2.90;;;;;;;11.43;45.59;100916.75;105898;1268;22536;-77
2022/09/07 03:28:14;;;;;;;5.10;2.90;;;;;;;11.43;45.52;100914.11;106227;1273;25226;-78
2022/09/07 03:30:43;;;;;;;6.80;2.60;;;;;;;11.44;45.54;100914.65;106421;1271;23156;-78
2022/09/07 03:33:11;;;;;;;4.60;2.70;;;;;;;11.46;45.63;100918.16;106079;1276;25338;-79
2022/09/07 03:35:38;;;;;;;3.70;2.50;;;;;;;11.42;45.47;100917.48;106462;1274;25350;-85
2022/09/07 03:38:05;;;;;;;8.50;2.40;;;;;;;11.40;45.51;100916.25;107526;1274;22570;-83
2022/09/07 03:40:32;;;;;;;3.80;2.70;;;;;;;11.40;45.56;100916.61;106953;1275;22764;-80
2022/09/07 03:42:59;;;;;;;5.90;2.60;;;;;;;11.42;45.66;100917.66;106535;1274;23995;-78
2022/09/07 03:45:26;;;;;;;3.50;2.40;;;;;;;11.45;45.64;100919.74;106084;1277;24281;-76
2022/09/07 03:47:54;;;;;;;7.40;2.70;;;;;;;11.45;45.57;100918.34;105977;1277;22533;-74
2022/09/07 03:50:21;;;;;;;3.30;2.50;;;;;;;11.43;45.64;100917.30;105965;1274;22677;-73
2022/09/07 03:52:48;;;;;;;3.70;2.60;;;;;;;11.42;45.69;100921.89;106478;1271;24348;-77
2022/09/07 03:55:15;;;;;;;6.30;2.90;;;;;;;11.38;45.73;100921.02;106304;1271;24222;-73
2022/09/07 03:57:42;;;;;;;6.40;2.70;;;;;;;11.37;45.81;100923.50;105729;1278;24252;-78
2022/09/07 04:00:10;;;;;;;4.40;2.80;;;;;;;11.37;45.92;100920.33;105590;1280;22806;-82
2022/09/07 04:02:41;;;;;;;4.20;2.60;;;;;;;11.39;45.83;100922.44;106993;1282;24446;-83
2022/09/07 04:05:08;;;;;;;4.30;2.80;;;;;;;11.39;45.99;100919.26;105343;1284;22560;-83
2022/09/07 04:07:35;;;;;;;4.80;2.90;;;;;;;11.41;46.03;100916.42;105268;1282;26633;-82
2022/09/07 04:10:03;;;;;;;5.90;2.90;;;;;;;11.38;46.24;100912.20;105396;1284;25283;-80
2022/09/07 04:12:29;;;;;;;8.20;3.30;;;;;;;11.39;46.59;100913.78;105234;1284;22898;-79
2022/09/07 04:14:56;;;;;;;9.80;3.60;;;;;;;11.37;46.60;100919.45;105265;1284;26509;-77
2022/09/07 04:17:24;;;;;;;4.50;2.90;;;;;;;11.38;46.73;100919.09;106007;1274;22761;-79
2022/09/07 04:19:51;;;;;;;7.00;3.30;;;;;;;11.38;46.89;100925.44;105268;1282;22557;-82
2022/09/07 04:22:19;;;;;;;5.70;3.30;;;;;;;11.34;46.82;100923.86;105865;1278;22531;-78
2022/09/07 04:24:54;;;;;;;6.50;3.20;;;;;;;11.31;47.13;100923.35;105834;1278;24589;-80
2022/09/07 04:27:21;;;;;;;6.90;3.60;;;;;;;11.31;47.28;100926.52;105975;1277;22562;-79
2022/09/07 04:29:48;;;;;;;8.80;4.00;;;;;;;11.32;47.64;100926.86;105952;1277;25359;-80
2022/09/07 04:32:15;;;;;;;8.80;4.60;;;;;;;11.34;47.87;100927.57;105811;1278;24641;-78
2022/09/07 04:34:42;;;;;;;8.70;4.00;;;;;;;11.35;48.16;100932.14;105757;1278;24304;-80
2022/09/07 04:37:11;;;;;;;7.60;3.70;;;;;;;11.34;48.12;100927.73;105835;1274;22576;-83
2022/09/07 04:39:38;;;;;;;10.40;4.50;;;;;;;11.32;48.52;100927.75;106213;1273;22679;-79
2022/09/07 04:42:05;;;;;;;9.10;4.00;;;;;;;11.29;48.93;100927.39;106190;1274;25514;-80
2022/09/07 04:44:32;;;;;;;8.20;4.60;;;;;;;11.27;49.29;100929.88;105832;1279;23614;-82
2022/09/07 04:47:00;;;;;;;10.90;4.90;;;;;;;11.25;49.90;100927.23;106236;1277;22661;-76
2022/09/07 04:49:27;;;;;;;8.10;4.90;;;;;;;11.25;50.21;100929.17;105371;1282;22695;-78
2022/09/07 04:51:54;;;;;;;12.10;5.20;;;;;;;11.25;50.07;100925.82;105401;1284;22699;-76
2022/09/07 04:54:21;;;;;;;9.30;4.40;;;;;;;11.25;50.53;100930.77;105571;1281;22554;-79
2022/09/07 04:56:48;;;;;;;7.40;4.90;;;;;;;11.24;50.77;100929.17;105842;1281;22666;-79
2022/09/07 04:59:15;;;;;;;10.70;4.90;;;;;;;11.24;51.02;100932.89;105604;1282;23456;-79
2022/09/07 05:01:42;;;;;;;9.40;5.20;;;;;;;11.26;51.64;100930.23;105077;1288;22548;-78
2022/09/07 05:04:12;;;;;;;11.60;5.20;;;;;;;11.25;51.93;100933.94;105159;1287;22589;-79
2022/09/07 05:06:40;;;;;;;15.20;5.00;;;;;;;11.25;52.27;100933.58;105326;1284;24079;-78
2022/09/07 05:09:09;;;;;;;11.90;6.10;;;;;;;11.26;52.32;100935.52;105749;1278;22529;-79
2022/09/07 05:11:36;;;;;;;11.00;5.50;;;;;;;11.29;52.41;100938.15;106093;1278;23291;-79
2022/09/07 05:14:03;;;;;;;8.90;5.50;;;;;;;11.32;52.60;100938.34;105654;1278;22659;-78
2022/09/07 05:16:31;;;;;;;12.20;6.10;;;;;;;11.34;52.71;100940.26;105858;1277;24061;-86
2022/09/07 05:19:05;;;;;;;14.70;5.40;;;;;;;11.37;52.68;100942.73;106646;1272;24529;-85
2022/09/07 05:21:44;;;;;;;11.10;5.60;;;;;;;11.39;52.74;100945.00;106627;1268;22557;-80
2022/09/07 05:24:11;;;;;;;13.70;5.60;;;;;;;11.42;52.69;100947.63;106251;1273;22528;-78
2022/09/07 05:26:39;;;;;;;12.90;5.70;;;;;;;11.44;52.41;100946.73;106356;1274;24250;-77
2022/09/07 05:29:06;;;;;;;9.30;5.30;;;;;;;11.47;52.42;100942.85;106299;1271;23168;-76
2022/09/07 05:31:53;;;;;;;15.80;5.50;;;;;;;11.50;52.45;100940.02;106361;1268;24196;-80
2022/09/07 05:34:20;;;;;;;15.60;6.00;;;;;;;11.51;52.52;100940.89;106389;1269;22690;-77
2022/09/07 05:36:57;;;;;;;11.90;5.40;;;;;;;11.57;52.55;100942.64;106144;1268;22651;-78
2022/09/07 05:39:25;;;;;;;7.30;5.30;;;;;;;11.62;52.62;100939.44;106075;1268;22767;-78
2022/09/07 05:41:52;;;;;;;12.60;6.10;;;;;;;11.66;52.54;100938.52;106242;1268;24233;-79
2022/09/07 05:44:19;;;;;;;9.80;5.00;;;;;;;11.68;52.61;100941.52;106059;1274;24222;-76
2022/09/07 05:47:08;;;;;;;9.90;4.80;;;;;;;11.74;51.94;100946.96;106004;1274;24292;-78
2022/09/07 05:49:35;;;;;;;12.10;5.00;;;;;;;11.77;51.35;100943.96;106050;1275;24269;-80
2022/09/07 05:52:02;;;;;;;13.50;5.50;;;;;;;11.81;51.20;100939.70;106211;1274;22622;-77
2022/09/07 05:54:29;;;;;;;9.00;5.50;;;;;;;11.85;51.24;100937.38;105869;1274;23434;-76
2022/09/07 05:56:56;;;;;;;15.10;5.20;;;;;;;11.92;51.24;100938.40;105984;1274;22528;-76
2022/09/07 05:59:23;;;;;;;12.60;5.50;;;;;;;11.99;51.29;100937.11;105947;1274;25422;-77
2022/09/07 06:01:50;;;;;;;12.90;5.90;;;;;;;12.05;51.20;100939.39;106237;1274;22744;-74
2022/09/07 06:04:17;;;;;;;10.90;5.70;;;;;;;12.09;51.12;100939.19;105971;1274;22555;-76
2022/09/07 06:06:44;;;;;;;12.50;5.30;;;;;;;12.18;51.00;100943.92;105727;1277;26607;-77
2022/09/07 06:09:30;;;;;;;9.90;5.30;;;;;;;12.25;50.64;100937.52;105950;1274;25283;-77
2022/09/07 06:11:58;;;;;;;9.30;4.80;;;;;;;12.32;50.83;100932.68;106127;1274;25238;-75
2022/09/07 06:14:25;;;;;;;11.70;5.40;;;;;;;12.36;50.74;100932.49;105986;1274;24709;-80
2022/09/07 06:16:52;;;;;;;10.70;6.20;;;;;;;12.42;50.85;100932.08;106129;1274;23068;-77
2022/09/07 06:19:19;;;;;;;10.40;5.50;;;;;;;12.47;50.74;100924.98;106048;1274;25415;-76
2022/09/07 06:21:46;;;;;;;12.00;5.40;;;;;;;12.55;50.49;100927.04;106038;1274;22528;-77
2022/09/07 06:24:13;;;;;;;20.30;6.30;;;;;;;12.58;50.16;100924.17;106194;1268;22757;-75
2022/09/07 06:26:40;;;;;;;16.60;5.50;;;;;;;12.62;50.12;100923.44;106112;1268;23054;-77
2022/09/07 06:29:09;;;;;;;14.90;5.50;;;;;;;12.70;49.92;100918.06;106315;1268;22518;-76
2022/09/07 06:31:36;;;;;;;12.30;5.70;;;;;;;12.76;49.75;100913.40;106324;1271;25261;-76
2022/09/07 06:34:24;;;;;;;10.10;5.80;;;;;;;12.82;49.66;100906.10;106337;1268;25906;-75
2022/09/07 06:36:51;;;;;;;11.70;4.80;;;;;;;12.87;49.58;100901.27;106243;1268;24307;-80
2022/09/07 06:39:18;;;;;;;13.70;5.30;;;;;;;12.94;49.36;100902.08;106474;1268;22522;-78
2022/09/07 06:41:45;;;;;;;7.30;4.70;;;;;;;13.01;48.97;100899.36;106527;1268;22860;-77
2022/09/07 06:44:29;;;;;;;11.40;4.50;;;;;;;13.08;48.70;100896.80;106347;1271;25205;-78
2022/09/07 06:46:56;;;;;;;13.00;5.00;;;;;;;13.15;48.23;100893.20;106533;1267;25373;-76
2022/09/07 06:49:31;;;;;;;8.20;3.50;;;;;;;13.21;48.12;100891.52;106169;1271;22701;-76
2022/09/07 06:51:57;;;;;;;11.00;4.50;;;;;;;13.28;47.76;100896.59;106436;1268;22547;-76
2022/09/07 06:54:24;;;;;;;11.00;4.10;;;;;;;13.35;47.48;100900.39;106367;1269;25192;-75
2022/09/07 06:57:11;;;;;;;8.20;3.30;;;;;;;13.42;47.02;100899.77;106485;1269;22757;-76
2022/09/07 06:59:38;;;;;;;4.80;3.40;;;;;;;13.47;46.53;100895.63;106235;1268;25408;-76
2022/09/07 07:02:06;;;;;;;6.00;3.20;;;;;;;13.55;46.14;100893.98;106330;1267;22759;-75
2022/09/07 07:04:34;;;;;;;5.60;3.00;;;;;;;13.62;45.24;100898.13;106311;1271;25190;-76
2022/09/07 07:07:11;;;;;;;6.10;2.80;;;;;;;13.71;44.87;100897.48;106286;1271;25188;-73
2022/09/07 07:09:38;;;;;;;9.70;2.90;;;;;;;13.79;43.93;100899.14;106322;1267;25264;-73
2022/09/07 07:12:06;;;;;;;7.20;2.40;;;;;;;13.87;43.63;100901.32;106243;1267;22632;-76
2022/09/07 07:14:34;;;;;;;5.80;2.90;;;;;;;13.94;43.53;100902.09;105784;1274;22600;-75
2022/09/07 07:17:05;;;;;;;6.70;3.30;;;;;;;14.02;43.16;100906.59;106050;1273;25273;-76
2022/09/07 07:19:32;;;;;;;5.60;2.50;;;;;;;14.07;42.77;100910.39;105994;1274;22620;-78
2022/09/07 07:21:59;;;;;;;9.20;4.10;;;;;;;14.13;42.07;100912.80;106143;1273;22619;-77
2022/09/07 07:24:46;;;;;;;8.60;2.80;;;;;;;14.20;42.28;100917.63;105910;1275;24297;-76
2022/09/07 07:27:13;;;;;;;6.00;3.10;;;;;;;14.27;41.90;100927.45;105940;1275;22567;-79
2022/09/07 07:29:40;;;;;;;9.00;2.80;;;;;;;14.35;41.72;100937.43;105925;1273;22793;-78
2022/09/07 07:32:08;;;;;;;3.70;2.20;;;;;;;14.42;41.07;100940.50;105711;1279;22751;-75
2022/09/07 07:34:35;;;;;;;5.70;2.10;;;;;;;14.47;40.62;100939.35;105898;1276;22535;-76
2022/09/07 07:37:02;;;;;;;5.80;2.30;;;;;;;14.55;40.19;100936.57;106083;1274;22553;-75
2022/09/07 07:39:29;;;;;;;3.80;1.70;;;;;;;14.62;40.10;100941.95;105656;1277;24303;-75
2022/09/07 07:42:15;;;;;;;4.80;2.00;;;;;;;14.72;39.72;100938.40;105701;1275;24388;-76
2022/09/07 07:44:43;;;;;;;3.60;1.60;;;;;;;14.81;39.68;100943.79;105915;1275;24762;-78
2022/09/07 07:47:10;;;;;;;4.90;1.70;;;;;;;14.87;38.92;100940.47;105982;1276;25356;-76
2022/09/07 07:49:37;;;;;;;3.00;2.00;;;;;;;14.88;38.77;100928.40;105932;1267;22551;-77
2022/09/07 07:52:05;;;;;;;5.60;1.70;;;;;;;14.94;38.03;100933.09;106198;1269;24733;-76
2022/09/07 07:54:51;;;;;;;4.40;1.70;;;;;;;15.03;38.39;100932.04;106202;1267;22538;-73
2022/09/07 07:57:18;;;;;;;3.10;1.40;;;;;;;15.11;38.15;100931.86;106386;1267;23380;-74
2022/09/07 07:59:45;;;;;;;3.30;1.70;;;;;;;15.17;37.56;100928.92;106257;1267;25241;-79
2022/09/07 08:02:14;;;;;;;2.00;1.40;;;;;;;15.21;37.46;100927.95;106225;1267;22548;-78
2022/09/07 08:04:42;;;;;;;3.30;1.40;;;;;;;15.30;37.29;100924.23;106354;1269;22629;-75
2022/09/07 08:07:10;;;;;;;2.50;1.50;;;;;;;15.40;37.57;100914.61;106327;1268;25329;-75
2022/09/07 08:09:42;;;;;;;3.80;1.50;;;;;;;15.52;37.43;100911.00;106353;1270;24269;-76
2022/09/07 08:12:11;;;;;;;4.10;1.80;;;;;;;15.65;37.09;100910.02;106323;1268;22531;-75
2022/09/07 08:14:39;;;;;;;3.50;1.40;;;;;;;15.77;36.82;100906.37;106210;1268;22727;-75
2022/09/07 08:17:13;;;;;;;3.30;1.20;;;;;;;15.88;36.44;100902.92;106359;1268;24586;-75
2022/09/07 08:19:40;;;;;;;4.70;1.80;;;;;;;16.00;36.47;100908.36;106362;1267;22554;-76
2022/09/07 08:22:09;;;;;;;3.10;1.30;;;;;;;16.11;36.12;100905.80;106346;1267;22529;-75
2022/09/07 08:24:36;;;;;;;2.90;1.30;;;;;;;16.19;35.84;100905.43;106254;1267;24072;-77
2022/09/07 08:27:04;;;;;;;2.90;1.50;;;;;;;16.31;35.89;100901.59;106554;1267;25403;-76
2022/09/07 08:29:31;;;;;;;4.10;1.00;;;;;;;16.46;35.83;100894.30;106485;1267;24498;-76
2022/09/07 08:32:03;;;;;;;3.20;1.40;;;;;;;16.55;35.67;100889.42;106495;1268;24988;-78
2022/09/07 08:34:31;;;;;;;2.20;1.00;;;;;;;16.63;35.50;100888.68;106275;1267;25409;-77
2022/09/07 08:36:58;;;;;;;1.80;1.10;;;;;;;16.74;35.65;100880.77;106348;1267;24260;-79
2022/09/07 08:39:25;;;;;;;3.20;1.50;;;;;;;16.90;35.29;100886.20;106297;1268;22686;-75
2022/09/07 08:42:05;;;;;;;3.00;1.30;;;;;;;17.03;35.15;100879.61;106178;1268;22664;-77
2022/09/07 08:44:38;;;;;;;2.40;1.30;;;;;;;17.17;35.17;100878.35;106355;1268;24336;-79
2022/09/07 08:47:17;;;;;;;4.50;1.40;;;;;;;17.32;34.82;100874.53;106430;1268;25304;-75
2022/09/07 08:50:01;;;;;;;4.60;1.40;;;;;;;17.45;34.31;100872.91;106198;1268;22760;-77
2022/09/07 08:52:47;;;;;;;8.20;1.40;;;;;;;17.58;33.96;100868.79;106356;1268;22621;-74
2022/09/07 08:55:30;;;;;;;1.50;1.10;;;;;;;17.72;33.29;100870.15;106214;1267;22738;-77
2022/09/07 08:58:15;;;;;;;2.90;0.80;;;;;;;17.87;33.00;100863.63;106472;1268;24292;-77
2022/09/07 09:01:16;;;;;;;0.90;0.80;;;;;;;18.04;32.66;100865.20;106410;1268;25280;-75
2022/09/07 09:04:00;;;;;;;4.10;1.10;;;;;;;18.17;32.05;100860.34;106369;1267;24222;-75
2022/09/07 09:07:01;;;;;;;2.10;0.80;;;;;;;18.28;31.61;100860.36;105732;1276;24263;-76
2022/09/07 09:09:34;;;;;;;3.20;1.10;;;;;;;18.35;31.68;100857.80;105814;1276;22557;-77
2022/09/07 09:12:22;;;;;;;1.40;0.80;;;;;;;18.53;31.72;100859.16;106023;1274;25451;-76
2022/09/07 09:14:58;;;;;;;1.10;1.00;;;;;;;18.71;31.11;100850.84;105899;1274;25601;-78
2022/09/07 09:17:24;;;;;;;;;;;;;;;18.87;31.01;100836.71;105935;1275;24266;-77
2022/09/07 09:19:54;;;;;;;1.50;0.90;;;;;;;19.03;30.78;100832.92;106002;1274;22548;-87
2022/09/07 09:22:25;;;;;;;3.20;1.30;;;;;;;19.19;30.73;100830.39;105994;1274;25407;-78
2022/09/07 09:25:02;;;;;;;6.30;1.30;;;;;;;19.39;30.59;100829.44;106219;1268;22806;-80
2022/09/07 09:27:29;;;;;;;8.20;4.20;;;;;;;19.59;29.94;100828.30;106345;1267;22711;-75
2022/09/07 09:29:56;;;;;;;2.40;1.90;;;;;;;19.75;29.67;100827.69;106354;1268;22530;-76
2022/09/07 09:32:34;;;;;;;5.60;2.50;;;;;;;19.88;29.59;100827.86;106340;1269;24303;-76
2022/09/07 09:35:17;;;;;;;2.10;1.30;;;;;;;20.02;29.55;100823.73;106400;1267;22612;-78
2022/09/07 09:37:45;;;;;;;3.30;1.30;;;;;;;20.17;29.38;100823.86;106265;1268;25349;-77
2022/09/07 09:40:38;;;;;;;3.70;1.10;;;;;;;20.31;29.18;100821.46;105908;1273;22539;-77
2022/09/07 09:43:20;;;;;;;3.30;1.20;;;;;;;20.41;29.04;100823.20;106155;1273;22612;-76
2022/09/07 09:45:50;;;;;;;1.30;1.00;;;;;;;20.51;29.11;100824.34;106061;1274;22552;-75
2022/09/07 09:48:40;;;;;;;2.40;1.50;;;;;;;20.65;28.98;100809.43;105940;1273;22540;-76
2022/09/07 09:51:08;;;;;;;1.70;1.00;;;;;;;20.70;28.71;100806.34;106110;1274;25242;-77
2022/09/07 09:53:58;;;;;;;2.70;1.00;;;;;;;20.86;28.45;100809.57;106156;1274;22689;-84
2022/09/07 09:56:55;;;;;;;1.70;0.90;;;;;;;21.03;28.32;100810.06;106115;1273;22787;-77
2022/09/07 09:59:27;;;;;;;2.70;1.20;;;;;;;21.25;27.77;100807.26;106278;1267;25506;-77
2022/09/07 10:02:29;;;;;;;1.90;0.80;;;;;;;21.41;27.06;100801.16;106283;1267;22548;-79
2022/09/07 10:05:27;;;;;;;0.70;0.70;;;;;;;21.57;26.90;100800.55;106403;1267;22848;-78
2022/09/07 10:07:55;;;;;;;2.70;0.80;;;;;;;21.71;26.51;100798.29;106420;1268;25393;-77
2022/09/07 10:10:23;;;;;;;1.80;1.10;;;;;;;21.89;26.65;100788.08;106336;1267;22525;-76
2022/09/07 10:12:53;;;;;;;2.40;1.10;;;;;;;22.03;26.22;100782.36;106221;1268;22678;-74
2022/09/07 10:15:28;;;;;;;1.70;0.80;;;;;;;22.12;26.35;100784.93;106228;1268;25433;-77
2022/09/07 10:17:57;;;;;;;3.60;0.90;;;;;;;22.27;25.85;100785.80;106436;1267;23958;-77
2022/09/07 10:20:35;;;;;;;6.20;1.30;;;;;;;22.39;25.86;100784.27;106457;1267;22669;-80
2022/09/07 10:23:04;;;;;;;1.50;0.90;;;;;;;22.50;25.47;100783.37;106295;1267;23250;-74
2022/09/07 10:25:39;;;;;;;2.00;0.90;;;;;;;22.60;25.32;100785.93;106375;1267;24858;-77
2022/09/07 10:28:10;;;;;;;0.90;0.60;;;;;;;22.71;25.09;100785.86;106288;1267;25376;-77
2022/09/07 10:30:46;;;;;;;3.00;0.90;;;;;;;22.89;24.67;100781.13;106367;1267;24236;-77
2022/09/07 10:33:23;;;;;;;4.00;0.90;;;;;;;23.02;24.42;100779.89;106505;1267;22633;-81
2022/09/07 10:36:35;;;;;;;3.90;1.00;;;;;;;23.12;24.52;100771.09;106362;1267;24215;-80
2022/09/07 10:39:07;;;;;;;1.40;1.00;;;;;;;23.28;24.20;100769.15;106286;1267;24238;-79
2022/09/07 10:41:34;;;;;;;1.80;1.00;;;;;;;23.37;24.32;100760.71;106198;1268;26732;-77
2022/09/07 10:44:03;;;;;;;1.40;0.70;;;;;;;23.52;24.41;100763.10;106392;1267;22579;-77
2022/09/07 10:46:56;;;;;;;2.00;0.90;;;;;;;23.68;24.18;100769.59;106383;1267;25370;-77
2022/09/07 10:49:33;;;;;;;2.90;1.20;;;;;;;23.68;23.74;100763.66;106435;1268;24265;-79
2022/09/07 10:52:15;;;;;;;2.60;1.00;;;;;;;23.79;24.09;100760.88;106401;1267;25229;-80
2022/09/07 10:55:16;;;;;;;2.80;0.80;;;;;;;23.89;23.54;100760.43;106473;1267;22698;-78
2022/09/07 10:57:52;;;;;;;2.00;0.80;;;;;;;24.05;23.23;100755.58;106487;1267;25239;-74
2022/09/07 11:00:21;;;;;;;4.00;1.10;;;;;;;24.20;23.04;100751.42;106694;1267;25235;-75
2022/09/07 11:03:34;;;;;;;2.00;1.00;;;;;;;24.29;22.89;100747.11;106708;1267;23057;-76
2022/09/07 11:06:12;;;;;;;1.30;1.00;;;;;;;24.45;22.94;100749.73;107159;1267;22690;-78
2022/09/07 11:08:48;;;;;;;2.70;0.90;;;;;;;24.55;22.56;100751.83;107228;1267;25294;-75
2022/09/07 11:12:08;;;;;;;2.80;1.10;;;;;;;24.66;22.44;100750.80;106877;1267;22550;-79
2022/09/07 11:14:41;;;;;;;1.20;1.10;;;;;;;24.61;21.98;100749.87;106778;1267;25234;-80
2022/09/07 11:17:19;;;;;;;2.70;1.10;;;;;;;24.65;22.12;100747.96;106684;1267;25218;-77
2022/09/07 11:19:55;;;;;;;4.00;1.20;;;;;;;24.84;22.28;100742.51;106512;1268;26498;-81
2022/09/07 11:22:44;;;;;;;2.30;1.10;;;;;;;25.03;22.22;100744.52;106511;1267;24737;-79
2022/09/07 11:25:29;;;;;;;1.60;1.10;;;;;;;25.13;21.82;100739.16;106420;1268;24335;-80
2022/09/07 11:28:22;;;;;;;2.60;1.20;;;;;;;25.31;21.92;100734.98;106386;1267;22557;-78
2022/09/07 11:30:56;;;;;;;1.30;1.20;;;;;;;25.57;21.45;100739.01;106392;1268;22721;-78
2022/09/07 11:33:40;;;;;;;1.70;1.20;;;;;;;25.60;21.22;100739.03;106397;1267;23240;-77
2022/09/07 11:36:13;;;;;;;3.00;1.00;;;;;;;25.40;20.81;100732.61;106255;1268;22614;-76
2022/09/07 11:38:50;;;;;;;5.60;2.20;;;;;;;25.45;21.10;100726.48;106668;1267;24223;-74
2022/09/07 11:41:28;;;;;;;2.00;1.10;;;;;;;25.50;21.03;100725.44;106204;1274;22753;-76
2022/09/07 11:44:12;;;;;;;3.30;1.20;;;;;;;25.56;20.97;100718.02;105045;1275;1513708;-76
2022/09/07 11:46:50;;;;;;;2.50;1.00;;;;;;;25.61;20.99;100717.33;106605;1274;24090;-75
2022/09/07 11:49:22;;;;;;;3.80;1.00;;;;;;;25.67;20.83;100717.98;106675;1274;25529;-74